Wellington, Nevada
Current Conditions -  °F | °C
As of 9:52 PM on Wednesday 28 Jan 2015 (Local Time) from KBAN Reporting Station
Clear Clear  
Wind Chill: 33°   Ceiling: Unl
Heat Index: 33°   Visibility: NA
Dew Point: 24°   Wind: 0mph
Humidity: 70%   Direction: NA
Pressure: 30.29"   Gusts: NA
Location:  38.75°N, 119.37°W
Report Text: KBAN 290552Z AUTO 00000KT CLR 01/M04 A3029 RMK AO2 SLP257 T00061044 10089 20006 51006 $
Loading
Personal Weather Stations






























Interactive Weather Map New forecast layout! Learn more

10-Day Weather Forecast

Advertisements
Track Severe Weather on mobile